Pagrindinis puslapis
METAR-TAF:

METAR-TAF

Oro uostai :

Varadero, Kuba

platuma: 23-08N, ilguma: 081-17W, Aukštis: 3 m

Dabartinis oras

Ataskaita buvo paskelbta 27 minutes, ne 17:50 UTC
Vėjas 9 kt iš Pietų/Pietvakarių, svyruoja nuo Pietų ir Pietvakarių
Temperatūra 28°C
Drėgmė 66%
Slėgis 1010 hPa
Matomumas: 9000 m
Mažai debesys ne aukštis 2000 ft
Su prošvaistėmis ne aukštis 8000 ft

METAR: MUVR 121750Z 21009KT 170V230 9000 FEW020 BKN080 28/21 Q1010

Laikas: 14:17 (18:17 UTC)

Prognozė

Ataskaita buvo paskelbta 1 valandą ir 17 minutes, ne 17:00 UTC
Prognozė galioja nuo 12 metu 18 UTC su 13 metu 18 UTC
Vėjas 12 kt iš Šiaurės/Šiaurės Vakarų
Matomumas: 9000 m
Išsisklaidę debesys ne aukštis 2000 ft
Laikinai
nuo 12 metu 18 UTC su 12 metu 24 UTC
Matomumas: 5000 m
Mažai debesys ne aukštis 1800 ft, Liūtiniai kamuoliniai debesys.
Su prošvaistėmis ne aukštis 2000 ft
lietus
Tapsmas
nuo 13 metu 00 UTC su 13 metu 02 UTC
Vėjas 3 kt nuo kintamojo kryptimis

TAF: MUVR 121700Z 1218/1318 33012KT 9000 SCT020 TEMPO 1218/1224 5000 SHRA FEW018CB BKN020 BECMG 1300/1302 VRB03KT

Orai ataskaitas ir orų prognozės (METAR, TAF).

turimą stotys yra geltonos ir raudonos taškus žemėlapyje.

Perkelti pele per norėdami pamatyti stoties vardą.

Tada spustelėkite, norėdami matyti oro stebėjimo ir prognozės.

Norėdami pakeisti žemėlapį: spustelėkite ant žalios mygtukų su juodo kryžiaus žemyn,; žalią mygtuką su brūkšneliu, jei norite nutolinti; arba žalių rodyklių gretimoms žemėlapius.


METAR-TAF: